Weather at Luke Air Force Base

Public forecast

Using degrees Fahrenheit for public forecast. Weather courtesy of forecast.io.

Current aviation weather report (METAR) for Luke Air Force Base

2024/02/25 06:55 (retrieved 32 minutes ago)

KLUF 250655Z AUTO 34004KT 10SM CLR 15/05 A3004 RMK AO2 SLP167 T01530049 402510123

Aviation forecast (TAF) for Luke Air Force Base

Forecast is more than 12 hours old.

2024/02/23 20:00 (retrieved 1 day ago)

TAF KLUF 232000Z 2320/2502 VRB06KT 9999 SCT160 BKN200 QNH2995INS TX25/2323Z TN09/2412Z LAST NO AMDS AFT 2321 NEXT 2612